sensor_id;sensor_type;location;lat;lon;timestamp;P1;durP1;ratioP1;P2;durP2;ratioP2
15230;SDS011;32569;51.762;8.564;2023-06-24T00:02:00;10.27;;;9.37;;
15230;SDS011;32569;51.762;8.564;2023-06-24T00:04:27;10.77;;;9.67;;
15230;SDS011;32569;51.762;8.564;2023-06-24T00:06:54;11.67;;;10.57;;
15230;SDS011;32569;51.762;8.564;2023-06-24T00:09:24;10.77;;;9.67;;
15230;SDS011;32569;51.762;8.564;2023-06-24T00:11:52;11.07;;;9.87;;
15230;SDS011;32569;51.762;8.564;2023-06-24T00:14:25;10.43;;;9.43;;
15230;SDS011;32569;51.762;8.564;2023-06-24T00:16:52;11.53;;;10.37;;
15230;SDS011;32569;51.762;8.564;2023-06-24T00:19:20;9.97;;;9.17;;
15230;SDS011;32569;51.762;8.564;2023-06-24T00:21:48;10.10;;;9.10;;
15230;SDS011;32569;51.762;8.564;2023-06-24T00:24:16;10.53;;;9.53;;
15230;SDS011;32569;51.762;8.564;2023-06-24T00:26:44;10.53;;;9.53;;
15230;SDS011;32569;51.762;8.564;2023-06-24T00:29:11;10.97;;;9.90;;
15230;SDS011;32569;51.762;8.564;2023-06-24T00:31:39;10.77;;;9.77;;
15230;SDS011;32569;51.762;8.564;2023-06-24T00:34:10;11.13;;;10.03;;
15230;SDS011;32569;51.762;8.564;2023-06-24T00:36:36;12.50;;;9.83;;
15230;SDS011;32569;51.762;8.564;2023-06-24T00:39:03;10.10;;;9.20;;
15230;SDS011;32569;51.762;8.564;2023-06-24T00:41:30;10.50;;;9.53;;
15230;SDS011;32569;51.762;8.564;2023-06-24T00:43:57;11.87;;;9.90;;
15230;SDS011;32569;51.762;8.564;2023-06-24T00:46:24;10.87;;;9.73;;
15230;SDS011;32569;51.762;8.564;2023-06-24T00:48:53;10.73;;;9.63;;
15230;SDS011;32569;51.762;8.564;2023-06-24T00:51:20;11.33;;;10.17;;
15230;SDS011;32569;51.762;8.564;2023-06-24T00:53:51;11.40;;;10.30;;
15230;SDS011;32569;51.762;8.564;2023-06-24T00:56:18;11.30;;;10.23;;
15230;SDS011;32569;51.762;8.564;2023-06-24T00:58:50;11.13;;;10.23;;
15230;SDS011;32569;51.762;8.564;2023-06-24T01:01:18;11.83;;;10.53;;
15230;SDS011;32569;51.762;8.564;2023-06-24T01:03:46;11.53;;;10.43;;
15230;SDS011;32569;51.762;8.564;2023-06-24T01:06:14;11.20;;;10.10;;
15230;SDS011;32569;51.762;8.564;2023-06-24T01:08:41;11.50;;;10.30;;
15230;SDS011;32569;51.762;8.564;2023-06-24T01:11:08;10.50;;;9.50;;
15230;SDS011;32569;51.762;8.564;2023-06-24T01:13:35;14.70;;;9.67;;
15230;SDS011;32569;51.762;8.564;2023-06-24T01:16:02;10.80;;;9.77;;
15230;SDS011;32569;51.762;8.564;2023-06-24T01:18:38;11.30;;;10.20;;
15230;SDS011;32569;51.762;8.564;2023-06-24T01:21:10;11.10;;;9.97;;
15230;SDS011;32569;51.762;8.564;2023-06-24T01:26:44;11.17;;;9.97;;
15230;SDS011;32569;51.762;8.564;2023-06-24T01:32:24;10.83;;;9.30;;
15230;SDS011;32569;51.762;8.564;2023-06-24T01:34:55;11.43;;;10.43;;
15230;SDS011;32569;51.762;8.564;2023-06-24T01:37:25;11.43;;;10.37;;
15230;SDS011;32569;51.762;8.564;2023-06-24T01:40:00;10.50;;;9.40;;
15230;SDS011;32569;51.762;8.564;2023-06-24T01:42:34;11.57;;;9.30;;
15230;SDS011;32569;51.762;8.564;2023-06-24T01:45:03;10.90;;;9.83;;
15230;SDS011;32569;51.762;8.564;2023-06-24T01:47:33;11.00;;;9.90;;
15230;SDS011;32569;51.762;8.564;2023-06-24T01:50:01;11.17;;;10.07;;
15230;SDS011;32569;51.762;8.564;2023-06-24T01:52:36;11.30;;;10.30;;
15230;SDS011;32569;51.762;8.564;2023-06-24T01:55:04;12.17;;;10.93;;
15230;SDS011;32569;51.762;8.564;2023-06-24T01:57:34;12.57;;;11.27;;
15230;SDS011;32569;51.762;8.564;2023-06-24T02:00:03;11.43;;;9.67;;
15230;SDS011;32569;51.762;8.564;2023-06-24T02:02:36;12.13;;;10.93;;
15230;SDS011;32569;51.762;8.564;2023-06-24T02:05:04;12.53;;;11.17;;
15230;SDS011;32569;51.762;8.564;2023-06-24T02:07:33;11.20;;;10.07;;
15230;SDS011;32569;51.762;8.564;2023-06-24T02:10:00;10.30;;;9.30;;
15230;SDS011;32569;51.762;8.564;2023-06-24T02:12:31;12.03;;;9.70;;
15230;SDS011;32569;51.762;8.564;2023-06-24T02:14:58;10.80;;;9.70;;
15230;SDS011;32569;51.762;8.564;2023-06-24T02:17:27;9.73;;;8.73;;
15230;SDS011;32569;51.762;8.564;2023-06-24T02:19:56;10.37;;;9.37;;
15230;SDS011;32569;51.762;8.564;2023-06-24T02:22:24;9.73;;;8.73;;
15230;SDS011;32569;51.762;8.564;2023-06-24T02:24:51;10.00;;;9.00;;
15230;SDS011;32569;51.762;8.564;2023-06-24T02:27:20;10.20;;;9.20;;
15230;SDS011;32569;51.762;8.564;2023-06-24T02:29:48;11.13;;;9.63;;
15230;SDS011;32569;51.762;8.564;2023-06-24T02:32:15;10.07;;;9.17;;
15230;SDS011;32569;51.762;8.564;2023-06-24T02:34:42;11.83;;;10.00;;
15230;SDS011;32569;51.762;8.564;2023-06-24T02:37:10;10.60;;;9.60;;
15230;SDS011;32569;51.762;8.564;2023-06-24T02:39:40;10.07;;;9.07;;
15230;SDS011;32569;51.762;8.564;2023-06-24T02:42:09;10.27;;;9.13;;
15230;SDS011;32569;51.762;8.564;2023-06-24T02:44:36;10.17;;;9.13;;
15230;SDS011;32569;51.762;8.564;2023-06-24T02:47:04;10.60;;;9.70;;
15230;SDS011;32569;51.762;8.564;2023-06-24T02:49:32;9.50;;;8.60;;
15230;SDS011;32569;51.762;8.564;2023-06-24T02:51:59;10.77;;;9.63;;
15230;SDS011;32569;51.762;8.564;2023-06-24T02:54:27;10.20;;;9.10;;
15230;SDS011;32569;51.762;8.564;2023-06-24T02:56:55;10.77;;;9.57;;
15230;SDS011;32569;51.762;8.564;2023-06-24T02:59:23;9.47;;;8.57;;
15230;SDS011;32569;51.762;8.564;2023-06-24T03:01:51;10.77;;;8.87;;
15230;SDS011;32569;51.762;8.564;2023-06-24T03:04:20;10.03;;;9.03;;
15230;SDS011;32569;51.762;8.564;2023-06-24T03:06:47;11.30;;;9.87;;
15230;SDS011;32569;51.762;8.564;2023-06-24T03:09:14;11.13;;;9.13;;
15230;SDS011;32569;51.762;8.564;2023-06-24T03:11:45;11.40;;;9.57;;
15230;SDS011;32569;51.762;8.564;2023-06-24T03:14:12;10.77;;;9.77;;
15230;SDS011;32569;51.762;8.564;2023-06-24T03:16:39;10.47;;;9.43;;
15230;SDS011;32569;51.762;8.564;2023-06-24T03:19:05;10.80;;;9.53;;
15230;SDS011;32569;51.762;8.564;2023-06-24T03:21:32;11.30;;;8.47;;
15230;SDS011;32569;51.762;8.564;2023-06-24T03:23:59;11.17;;;8.90;;
15230;SDS011;32569;51.762;8.564;2023-06-24T03:26:30;10.70;;;9.47;;
15230;SDS011;32569;51.762;8.564;2023-06-24T03:28:59;10.00;;;9.10;;
15230;SDS011;32569;51.762;8.564;2023-06-24T03:31:26;9.40;;;8.40;;
15230;SDS011;32569;51.762;8.564;2023-06-24T03:33:55;10.70;;;9.13;;
15230;SDS011;32569;51.762;8.564;2023-06-24T03:36:22;10.63;;;8.67;;
15230;SDS011;32569;51.762;8.564;2023-06-24T03:38:50;10.80;;;8.47;;
15230;SDS011;32569;51.762;8.564;2023-06-24T03:41:16;9.57;;;8.67;;
15230;SDS011;32569;51.762;8.564;2023-06-24T03:43:43;9.63;;;8.53;;
15230;SDS011;32569;51.762;8.564;2023-06-24T03:46:12;10.77;;;8.87;;
15230;SDS011;32569;51.762;8.564;2023-06-24T03:48:38;9.57;;;8.67;;
15230;SDS011;32569;51.762;8.564;2023-06-24T03:51:05;9.70;;;8.80;;
15230;SDS011;32569;51.762;8.564;2023-06-24T03:53:32;10.03;;;8.23;;
15230;SDS011;32569;51.762;8.564;2023-06-24T03:55:58;10.67;;;8.57;;
15230;SDS011;32569;51.762;8.564;2023-06-24T03:58:26;10.17;;;8.57;;
15230;SDS011;32569;51.762;8.564;2023-06-24T04:00:52;9.30;;;8.50;;
15230;SDS011;32569;51.762;8.564;2023-06-24T04:03:23;10.77;;;8.43;;
15230;SDS011;32569;51.762;8.564;2023-06-24T04:05:55;9.97;;;8.70;;
15230;SDS011;32569;51.762;8.564;2023-06-24T04:08:22;11.13;;;9.40;;
15230;SDS011;32569;51.762;8.564;2023-06-24T04:10:50;10.83;;;9.33;;
15230;SDS011;32569;51.762;8.564;2023-06-24T04:13:17;9.67;;;8.77;;
15230;SDS011;32569;51.762;8.564;2023-06-24T04:15:43;10.70;;;9.20;;
15230;SDS011;32569;51.762;8.564;2023-06-24T04:18:10;9.70;;;8.77;;
15230;SDS011;32569;51.762;8.564;2023-06-24T04:20:38;13.03;;;9.27;;
15230;SDS011;32569;51.762;8.564;2023-06-24T04:23:08;11.83;;;8.90;;
15230;SDS011;32569;51.762;8.564;2023-06-24T04:25:35;10.60;;;9.13;;
15230;SDS011;32569;51.762;8.564;2023-06-24T04:28:05;10.67;;;9.07;;
15230;SDS011;32569;51.762;8.564;2023-06-24T04:30:32;10.00;;;9.10;;
15230;SDS011;32569;51.762;8.564;2023-06-24T04:33:00;9.63;;;8.30;;
15230;SDS011;32569;51.762;8.564;2023-06-24T04:35:26;11.50;;;9.83;;
15230;SDS011;32569;51.762;8.564;2023-06-24T04:37:54;9.90;;;8.90;;
15230;SDS011;32569;51.762;8.564;2023-06-24T04:40:21;12.13;;;9.17;;
15230;SDS011;32569;51.762;8.564;2023-06-24T04:42:48;9.60;;;7.80;;
15230;SDS011;32569;51.762;8.564;2023-06-24T04:45:17;9.23;;;7.80;;
15230;SDS011;32569;51.762;8.564;2023-06-24T04:47:44;10.50;;;8.03;;
15230;SDS011;32569;51.762;8.564;2023-06-24T04:50:11;11.03;;;7.70;;
15230;SDS011;32569;51.762;8.564;2023-06-24T04:52:37;10.90;;;8.37;;
15230;SDS011;32569;51.762;8.564;2023-06-24T04:55:09;8.70;;;7.53;;
15230;SDS011;32569;51.762;8.564;2023-06-24T04:57:36;10.30;;;8.27;;
15230;SDS011;32569;51.762;8.564;2023-06-24T05:00:03;15.43;;;8.90;;
15230;SDS011;32569;51.762;8.564;2023-06-24T05:02:30;10.53;;;8.57;;
15230;SDS011;32569;51.762;8.564;2023-06-24T05:04:57;9.30;;;7.43;;
15230;SDS011;32569;51.762;8.564;2023-06-24T05:07:24;11.77;;;8.13;;
15230;SDS011;32569;51.762;8.564;2023-06-24T05:09:51;10.40;;;7.73;;
15230;SDS011;32569;51.762;8.564;2023-06-24T05:12:19;9.03;;;7.23;;
15230;SDS011;32569;51.762;8.564;2023-06-24T05:14:49;12.90;;;8.03;;
15230;SDS011;32569;51.762;8.564;2023-06-24T05:17:16;13.87;;;8.23;;
15230;SDS011;32569;51.762;8.564;2023-06-24T05:19:43;8.63;;;7.67;;
15230;SDS011;32569;51.762;8.564;2023-06-24T05:22:10;11.40;;;7.83;;
15230;SDS011;32569;51.762;8.564;2023-06-24T05:24:36;10.50;;;8.00;;
15230;SDS011;32569;51.762;8.564;2023-06-24T05:27:03;9.40;;;7.77;;
15230;SDS011;32569;51.762;8.564;2023-06-24T05:29:33;10.23;;;7.87;;
15230;SDS011;32569;51.762;8.564;2023-06-24T05:32:00;8.47;;;7.67;;
15230;SDS011;32569;51.762;8.564;2023-06-24T05:34:28;8.87;;;7.40;;
15230;SDS011;32569;51.762;8.564;2023-06-24T05:36:55;11.93;;;7.90;;
15230;SDS011;32569;51.762;8.564;2023-06-24T05:39:24;11.73;;;7.73;;
15230;SDS011;32569;51.762;8.564;2023-06-24T05:41:51;8.60;;;7.20;;
15230;SDS011;32569;51.762;8.564;2023-06-24T05:44:18;11.27;;;7.40;;
15230;SDS011;32569;51.762;8.564;2023-06-24T05:46:46;8.27;;;6.67;;
15230;SDS011;32569;51.762;8.564;2023-06-24T05:49:12;10.33;;;7.53;;
15230;SDS011;32569;51.762;8.564;2023-06-24T05:51:39;8.07;;;7.10;;
15230;SDS011;32569;51.762;8.564;2023-06-24T05:54:06;8.00;;;7.13;;
15230;SDS011;32569;51.762;8.564;2023-06-24T05:56:33;9.50;;;7.10;;
15230;SDS011;32569;51.762;8.564;2023-06-24T05:59:01;11.07;;;7.13;;
15230;SDS011;32569;51.762;8.564;2023-06-24T06:01:27;8.33;;;6.73;;
15230;SDS011;32569;51.762;8.564;2023-06-24T06:03:55;11.40;;;7.50;;
15230;SDS011;32569;51.762;8.564;2023-06-24T06:06:22;10.90;;;7.50;;
15230;SDS011;32569;51.762;8.564;2023-06-24T06:08:48;8.70;;;7.57;;
15230;SDS011;32569;51.762;8.564;2023-06-24T06:11:15;7.53;;;6.93;;
15230;SDS011;32569;51.762;8.564;2023-06-24T06:13:42;8.60;;;6.90;;
15230;SDS011;32569;51.762;8.564;2023-06-24T06:16:08;11.37;;;7.20;;
15230;SDS011;32569;51.762;8.564;2023-06-24T06:18:35;10.33;;;7.20;;
15230;SDS011;32569;51.762;8.564;2023-06-24T06:21:03;11.60;;;7.17;;
15230;SDS011;32569;51.762;8.564;2023-06-24T06:23:30;7.73;;;7.03;;
15230;SDS011;32569;51.762;8.564;2023-06-24T06:25:56;9.33;;;7.07;;
15230;SDS011;32569;51.762;8.564;2023-06-24T06:28:23;8.63;;;6.63;;
15230;SDS011;32569;51.762;8.564;2023-06-24T06:30:50;7.53;;;6.77;;
15230;SDS011;32569;51.762;8.564;2023-06-24T06:33:17;7.93;;;6.37;;
15230;SDS011;32569;51.762;8.564;2023-06-24T06:35:43;11.07;;;7.37;;
15230;SDS011;32569;51.762;8.564;2023-06-24T06:38:11;9.67;;;6.90;;
15230;SDS011;32569;51.762;8.564;2023-06-24T06:40:38;7.40;;;6.70;;
15230;SDS011;32569;51.762;8.564;2023-06-24T06:43:05;8.00;;;6.80;;
15230;SDS011;32569;51.762;8.564;2023-06-24T06:45:32;7.83;;;6.80;;
15230;SDS011;32569;51.762;8.564;2023-06-24T06:47:58;9.97;;;7.23;;
15230;SDS011;32569;51.762;8.564;2023-06-24T06:50:25;7.80;;;7.10;;
15230;SDS011;32569;51.762;8.564;2023-06-24T06:52:51;9.50;;;7.83;;
15230;SDS011;32569;51.762;8.564;2023-06-24T06:55:20;8.30;;;6.70;;
15230;SDS011;32569;51.762;8.564;2023-06-24T06:57:47;7.97;;;6.67;;
15230;SDS011;32569;51.762;8.564;2023-06-24T07:00:14;11.70;;;7.60;;
15230;SDS011;32569;51.762;8.564;2023-06-24T07:02:40;9.43;;;6.93;;
15230;SDS011;32569;51.762;8.564;2023-06-24T07:05:07;7.73;;;6.87;;
15230;SDS011;32569;51.762;8.564;2023-06-24T07:07:35;7.87;;;7.07;;
15230;SDS011;32569;51.762;8.564;2023-06-24T07:10:02;7.63;;;6.90;;
15230;SDS011;32569;51.762;8.564;2023-06-24T07:12:30;7.67;;;6.97;;
15230;SDS011;32569;51.762;8.564;2023-06-24T07:14:57;7.80;;;7.10;;
15230;SDS011;32569;51.762;8.564;2023-06-24T07:17:23;8.23;;;7.27;;
15230;SDS011;32569;51.762;8.564;2023-06-24T07:19:50;8.53;;;7.30;;
15230;SDS011;32569;51.762;8.564;2023-06-24T07:22:17;8.43;;;7.73;;
15230;SDS011;32569;51.762;8.564;2023-06-24T07:24:43;7.73;;;6.87;;
15230;SDS011;32569;51.762;8.564;2023-06-24T07:27:10;7.60;;;6.63;;
15230;SDS011;32569;51.762;8.564;2023-06-24T07:29:38;7.37;;;6.77;;
15230;SDS011;32569;51.762;8.564;2023-06-24T07:32:08;8.83;;;7.93;;
15230;SDS011;32569;51.762;8.564;2023-06-24T07:34:34;8.57;;;7.70;;
15230;SDS011;32569;51.762;8.564;2023-06-24T07:37:01;8.23;;;7.47;;
15230;SDS011;32569;51.762;8.564;2023-06-24T07:39:28;9.37;;;7.60;;
15230;SDS011;32569;51.762;8.564;2023-06-24T07:41:55;8.67;;;7.87;;
15230;SDS011;32569;51.762;8.564;2023-06-24T07:44:21;8.03;;;7.33;;
15230;SDS011;32569;51.762;8.564;2023-06-24T07:46:49;7.57;;;6.70;;
15230;SDS011;32569;51.762;8.564;2023-06-24T07:49:16;8.37;;;7.50;;
15230;SDS011;32569;51.762;8.564;2023-06-24T07:51:43;7.57;;;6.80;;
15230;SDS011;32569;51.762;8.564;2023-06-24T07:54:11;7.93;;;7.17;;
15230;SDS011;32569;51.762;8.564;2023-06-24T07:56:38;7.77;;;6.77;;
15230;SDS011;32569;51.762;8.564;2023-06-24T07:59:04;8.30;;;7.50;;
15230;SDS011;32569;51.762;8.564;2023-06-24T08:01:31;8.77;;;7.70;;
15230;SDS011;32569;51.762;8.564;2023-06-24T08:03:59;7.63;;;6.93;;
15230;SDS011;32569;51.762;8.564;2023-06-24T08:06:25;8.53;;;7.63;;
15230;SDS011;32569;51.762;8.564;2023-06-24T08:08:52;7.63;;;6.93;;
15230;SDS011;32569;51.762;8.564;2023-06-24T08:11:19;7.67;;;6.97;;
15230;SDS011;32569;51.762;8.564;2023-06-24T08:13:49;6.93;;;6.23;;
15230;SDS011;32569;51.762;8.564;2023-06-24T08:16:16;6.60;;;6.00;;
15230;SDS011;32569;51.762;8.564;2023-06-24T08:18:44;6.67;;;5.70;;
15230;SDS011;32569;51.762;8.564;2023-06-24T08:21:12;6.40;;;5.43;;
15230;SDS011;32569;51.762;8.564;2023-06-24T08:23:39;6.87;;;5.70;;
15230;SDS011;32569;51.762;8.564;2023-06-24T08:26:06;6.70;;;5.80;;
15230;SDS011;32569;51.762;8.564;2023-06-24T08:28:33;6.60;;;6.00;;
15230;SDS011;32569;51.762;8.564;2023-06-24T08:31:00;5.97;;;5.43;;
15230;SDS011;32569;51.762;8.564;2023-06-24T08:33:26;6.27;;;5.73;;
15230;SDS011;32569;51.762;8.564;2023-06-24T08:35:56;6.00;;;5.50;;
15230;SDS011;32569;51.762;8.564;2023-06-24T08:38:24;5.80;;;5.20;;
15230;SDS011;32569;51.762;8.564;2023-06-24T08:40:51;7.47;;;6.40;;
15230;SDS011;32569;51.762;8.564;2023-06-24T08:43:18;9.03;;;5.57;;
15230;SDS011;32569;51.762;8.564;2023-06-24T08:45:44;6.40;;;5.80;;
15230;SDS011;32569;51.762;8.564;2023-06-24T08:48:12;6.20;;;5.70;;
15230;SDS011;32569;51.762;8.564;2023-06-24T08:50:43;7.60;;;5.80;;
15230;SDS011;32569;51.762;8.564;2023-06-24T08:53:12;6.47;;;5.87;;
15230;SDS011;32569;51.762;8.564;2023-06-24T08:55:43;6.80;;;6.10;;
15230;SDS011;32569;51.762;8.564;2023-06-24T08:58:12;5.80;;;5.30;;
15230;SDS011;32569;51.762;8.564;2023-06-24T09:00:39;6.00;;;5.50;;
15230;SDS011;32569;51.762;8.564;2023-06-24T09:03:07;6.20;;;5.60;;
15230;SDS011;32569;51.762;8.564;2023-06-24T09:05:34;7.83;;;6.30;;
15230;SDS011;32569;51.762;8.564;2023-06-24T09:08:01;8.20;;;6.13;;
15230;SDS011;32569;51.762;8.564;2023-06-24T09:10:31;7.03;;;6.20;;
15230;SDS011;32569;51.762;8.564;2023-06-24T09:13:00;8.67;;;6.07;;
15230;SDS011;32569;51.762;8.564;2023-06-24T09:15:29;6.20;;;5.70;;
15230;SDS011;32569;51.762;8.564;2023-06-24T09:17:56;6.43;;;5.83;;
15230;SDS011;32569;51.762;8.564;2023-06-24T09:20:23;9.57;;;6.67;;
15230;SDS011;32569;51.762;8.564;2023-06-24T09:22:50;8.50;;;6.77;;
15230;SDS011;32569;51.762;8.564;2023-06-24T09:25:17;9.83;;;5.87;;
15230;SDS011;32569;51.762;8.564;2023-06-24T09:27:46;8.07;;;5.73;;
15230;SDS011;32569;51.762;8.564;2023-06-24T09:30:20;7.33;;;6.43;;
15230;SDS011;32569;51.762;8.564;2023-06-24T09:32:48;7.50;;;6.80;;
15230;SDS011;32569;51.762;8.564;2023-06-24T09:35:16;7.17;;;6.57;;
15230;SDS011;32569;51.762;8.564;2023-06-24T09:37:48;7.27;;;6.20;;
15230;SDS011;32569;51.762;8.564;2023-06-24T09:40:15;6.30;;;5.73;;
15230;SDS011;32569;51.762;8.564;2023-06-24T09:42:47;8.50;;;7.20;;
15230;SDS011;32569;51.762;8.564;2023-06-24T09:45:20;7.70;;;6.63;;
15230;SDS011;32569;51.762;8.564;2023-06-24T09:47:48;7.60;;;6.67;;
15230;SDS011;32569;51.762;8.564;2023-06-24T09:50:14;7.87;;;6.67;;
15230;SDS011;32569;51.762;8.564;2023-06-24T09:52:44;7.57;;;6.87;;
15230;SDS011;32569;51.762;8.564;2023-06-24T09:55:12;8.10;;;7.00;;
15230;SDS011;32569;51.762;8.564;2023-06-24T09:57:39;9.00;;;8.07;;
15230;SDS011;32569;51.762;8.564;2023-06-24T10:00:08;8.90;;;8.07;;
15230;SDS011;32569;51.762;8.564;2023-06-24T10:02:37;8.43;;;7.60;;
15230;SDS011;32569;51.762;8.564;2023-06-24T10:05:04;7.43;;;5.93;;
15230;SDS011;32569;51.762;8.564;2023-06-24T10:07:32;6.70;;;6.20;;
15230;SDS011;32569;51.762;8.564;2023-06-24T10:10:00;7.47;;;6.67;;
15230;SDS011;32569;51.762;8.564;2023-06-24T10:12:28;7.10;;;6.00;;
15230;SDS011;32569;51.762;8.564;2023-06-24T10:14:56;6.70;;;6.00;;
15230;SDS011;32569;51.762;8.564;2023-06-24T10:17:23;6.50;;;5.43;;
15230;SDS011;32569;51.762;8.564;2023-06-24T10:19:53;6.60;;;5.50;;
15230;SDS011;32569;51.762;8.564;2023-06-24T10:22:21;6.63;;;5.93;;
15230;SDS011;32569;51.762;8.564;2023-06-24T10:24:49;6.43;;;5.83;;
15230;SDS011;32569;51.762;8.564;2023-06-24T10:27:17;7.20;;;6.20;;
15230;SDS011;32569;51.762;8.564;2023-06-24T10:29:47;8.60;;;5.93;;
15230;SDS011;32569;51.762;8.564;2023-06-24T10:32:15;8.33;;;6.90;;
15230;SDS011;32569;51.762;8.564;2023-06-24T10:34:42;7.10;;;6.20;;
15230;SDS011;32569;51.762;8.564;2023-06-24T10:37:13;6.90;;;6.13;;
15230;SDS011;32569;51.762;8.564;2023-06-24T10:39:48;6.43;;;5.83;;
15230;SDS011;32569;51.762;8.564;2023-06-24T10:42:25;6.90;;;6.20;;
15230;SDS011;32569;51.762;8.564;2023-06-24T10:44:56;7.67;;;6.63;;
15230;SDS011;32569;51.762;8.564;2023-06-24T10:47:24;8.33;;;6.70;;
15230;SDS011;32569;51.762;8.564;2023-06-24T10:49:52;7.60;;;6.80;;
15230;SDS011;32569;51.762;8.564;2023-06-24T10:52:23;8.27;;;6.67;;
15230;SDS011;32569;51.762;8.564;2023-06-24T10:54:53;7.10;;;6.50;;
15230;SDS011;32569;51.762;8.564;2023-06-24T10:57:20;8.27;;;6.77;;
15230;SDS011;32569;51.762;8.564;2023-06-24T10:59:48;8.00;;;6.70;;
15230;SDS011;32569;51.762;8.564;2023-06-24T11:02:16;7.27;;;6.47;;
15230;SDS011;32569;51.762;8.564;2023-06-24T11:04:46;7.30;;;6.67;;
15230;SDS011;32569;51.762;8.564;2023-06-24T11:07:14;7.80;;;7.00;;
15230;SDS011;32569;51.762;8.564;2023-06-24T11:09:49;7.90;;;6.87;;
15230;SDS011;32569;51.762;8.564;2023-06-24T11:12:16;6.50;;;5.90;;
15230;SDS011;32569;51.762;8.564;2023-06-24T11:14:43;7.50;;;6.10;;
15230;SDS011;32569;51.762;8.564;2023-06-24T11:17:10;6.77;;;6.10;;
15230;SDS011;32569;51.762;8.564;2023-06-24T11:19:38;6.83;;;6.23;;
15230;SDS011;32569;51.762;8.564;2023-06-24T11:22:08;7.53;;;5.87;;
15230;SDS011;32569;51.762;8.564;2023-06-24T11:24:35;6.23;;;5.50;;
15230;SDS011;32569;51.762;8.564;2023-06-24T11:27:05;6.07;;;5.20;;
15230;SDS011;32569;51.762;8.564;2023-06-24T11:29:33;7.90;;;5.27;;
15230;SDS011;32569;51.762;8.564;2023-06-24T11:32:00;6.73;;;6.03;;
15230;SDS011;32569;51.762;8.564;2023-06-24T11:34:27;6.10;;;5.50;;
15230;SDS011;32569;51.762;8.564;2023-06-24T11:36:54;6.17;;;5.67;;
15230;SDS011;32569;51.762;8.564;2023-06-24T11:39:22;6.37;;;5.67;;
15230;SDS011;32569;51.762;8.564;2023-06-24T11:41:49;6.60;;;5.57;;
15230;SDS011;32569;51.762;8.564;2023-06-24T11:44:18;5.87;;;5.23;;
15230;SDS011;32569;51.762;8.564;2023-06-24T11:46:45;6.40;;;5.80;;
15230;SDS011;32569;51.762;8.564;2023-06-24T11:49:13;6.27;;;5.77;;
15230;SDS011;32569;51.762;8.564;2023-06-24T11:51:47;5.63;;;5.23;;
15230;SDS011;32569;51.762;8.564;2023-06-24T11:54:16;7.13;;;6.43;;
15230;SDS011;32569;51.762;8.564;2023-06-24T11:56:48;6.37;;;5.87;;
15230;SDS011;32569;51.762;8.564;2023-06-24T11:59:17;5.83;;;5.23;;
15230;SDS011;32569;51.762;8.564;2023-06-24T12:01:52;7.07;;;5.53;;
15230;SDS011;32569;51.762;8.564;2023-06-24T12:04:20;6.23;;;5.70;;
15230;SDS011;32569;51.762;8.564;2023-06-24T12:06:47;5.57;;;4.93;;
15230;SDS011;32569;51.762;8.564;2023-06-24T12:09:14;5.40;;;5.00;;
15230;SDS011;32569;51.762;8.564;2023-06-24T12:11:41;5.33;;;4.83;;
15230;SDS011;32569;51.762;8.564;2023-06-24T12:14:08;6.53;;;5.57;;
15230;SDS011;32569;51.762;8.564;2023-06-24T12:16:39;5.57;;;5.17;;
15230;SDS011;32569;51.762;8.564;2023-06-24T12:19:06;6.20;;;4.77;;
15230;SDS011;32569;51.762;8.564;2023-06-24T12:21:36;5.37;;;4.90;;
15230;SDS011;32569;51.762;8.564;2023-06-24T12:24:03;7.83;;;5.37;;
15230;SDS011;32569;51.762;8.564;2023-06-24T12:26:33;6.20;;;5.17;;
15230;SDS011;32569;51.762;8.564;2023-06-24T12:29:02;6.83;;;5.30;;
15230;SDS011;32569;51.762;8.564;2023-06-24T12:31:29;6.97;;;5.77;;
15230;SDS011;32569;51.762;8.564;2023-06-24T12:33:57;6.37;;;5.37;;
15230;SDS011;32569;51.762;8.564;2023-06-24T12:36:24;6.50;;;5.47;;
15230;SDS011;32569;51.762;8.564;2023-06-24T12:38:51;6.53;;;5.60;;
15230;SDS011;32569;51.762;8.564;2023-06-24T12:41:18;5.70;;;5.20;;
15230;SDS011;32569;51.762;8.564;2023-06-24T12:43:44;6.00;;;5.50;;
15230;SDS011;32569;51.762;8.564;2023-06-24T12:46:11;5.50;;;5.00;;
15230;SDS011;32569;51.762;8.564;2023-06-24T12:48:38;6.03;;;5.20;;
15230;SDS011;32569;51.762;8.564;2023-06-24T12:51:06;5.33;;;4.93;;
15230;SDS011;32569;51.762;8.564;2023-06-24T12:53:36;5.77;;;5.27;;
15230;SDS011;32569;51.762;8.564;2023-06-24T12:56:02;5.50;;;5.10;;
15230;SDS011;32569;51.762;8.564;2023-06-24T12:58:29;6.37;;;5.77;;
15230;SDS011;32569;51.762;8.564;2023-06-24T13:00:57;5.50;;;5.03;;
15230;SDS011;32569;51.762;8.564;2023-06-24T13:03:24;6.47;;;5.97;;
15230;SDS011;32569;51.762;8.564;2023-06-24T13:05:51;6.80;;;4.97;;
15230;SDS011;32569;51.762;8.564;2023-06-24T13:08:19;5.60;;;5.10;;
15230;SDS011;32569;51.762;8.564;2023-06-24T13:10:46;6.13;;;5.53;;
15230;SDS011;32569;51.762;8.564;2023-06-24T13:13:16;4.77;;;4.37;;
15230;SDS011;32569;51.762;8.564;2023-06-24T13:15:42;5.20;;;4.80;;
15230;SDS011;32569;51.762;8.564;2023-06-24T13:18:09;5.27;;;4.77;;
15230;SDS011;32569;51.762;8.564;2023-06-24T13:20:36;5.40;;;4.90;;
15230;SDS011;32569;51.762;8.564;2023-06-24T13:23:02;6.20;;;5.07;;
15230;SDS011;32569;51.762;8.564;2023-06-24T13:25:36;5.67;;;5.27;;
15230;SDS011;32569;51.762;8.564;2023-06-24T13:28:03;5.73;;;5.23;;
15230;SDS011;32569;51.762;8.564;2023-06-24T13:30:30;5.97;;;5.40;;
15230;SDS011;32569;51.762;8.564;2023-06-24T13:32:57;5.23;;;4.77;;
15230;SDS011;32569;51.762;8.564;2023-06-24T13:35:24;5.90;;;5.40;;
15230;SDS011;32569;51.762;8.564;2023-06-24T13:37:50;5.73;;;5.27;;
15230;SDS011;32569;51.762;8.564;2023-06-24T13:40:17;6.37;;;5.80;;
15230;SDS011;32569;51.762;8.564;2023-06-24T13:42:45;5.83;;;5.43;;
15230;SDS011;32569;51.762;8.564;2023-06-24T13:45:12;5.93;;;5.40;;
15230;SDS011;32569;51.762;8.564;2023-06-24T13:47:41;6.30;;;5.10;;
15230;SDS011;32569;51.762;8.564;2023-06-24T13:50:10;6.00;;;5.10;;
15230;SDS011;32569;51.762;8.564;2023-06-24T13:52:36;6.57;;;6.07;;
15230;SDS011;32569;51.762;8.564;2023-06-24T13:55:05;5.83;;;5.33;;
15230;SDS011;32569;51.762;8.564;2023-06-24T13:57:35;6.00;;;4.97;;
15230;SDS011;32569;51.762;8.564;2023-06-24T14:00:07;5.87;;;5.37;;
15230;SDS011;32569;51.762;8.564;2023-06-24T14:02:35;5.90;;;5.40;;
15230;SDS011;32569;51.762;8.564;2023-06-24T14:05:03;5.80;;;5.20;;
15230;SDS011;32569;51.762;8.564;2023-06-24T14:07:30;6.57;;;6.00;;
15230;SDS011;32569;51.762;8.564;2023-06-24T14:09:57;6.47;;;5.70;;
15230;SDS011;32569;51.762;8.564;2023-06-24T14:12:24;6.00;;;5.50;;
15230;SDS011;32569;51.762;8.564;2023-06-24T14:14:50;5.23;;;4.80;;
15230;SDS011;32569;51.762;8.564;2023-06-24T14:17:19;6.43;;;5.30;;
15230;SDS011;32569;51.762;8.564;2023-06-24T14:19:46;6.80;;;6.07;;
15230;SDS011;32569;51.762;8.564;2023-06-24T14:22:12;5.50;;;5.00;;
15230;SDS011;32569;51.762;8.564;2023-06-24T14:24:39;5.97;;;5.33;;
15230;SDS011;32569;51.762;8.564;2023-06-24T14:27:06;5.43;;;4.93;;
15230;SDS011;32569;51.762;8.564;2023-06-24T14:29:33;5.77;;;5.27;;
15230;SDS011;32569;51.762;8.564;2023-06-24T14:31:59;5.50;;;5.10;;
15230;SDS011;32569;51.762;8.564;2023-06-24T14:34:29;7.77;;;5.20;;
15230;SDS011;32569;51.762;8.564;2023-06-24T14:36:57;6.47;;;5.87;;
15230;SDS011;32569;51.762;8.564;2023-06-24T14:39:24;6.77;;;6.00;;
15230;SDS011;32569;51.762;8.564;2023-06-24T14:41:50;5.37;;;4.93;;
15230;SDS011;32569;51.762;8.564;2023-06-24T14:44:17;7.00;;;5.50;;
15230;SDS011;32569;51.762;8.564;2023-06-24T14:46:43;7.10;;;6.03;;
15230;SDS011;32569;51.762;8.564;2023-06-24T14:49:10;6.63;;;6.03;;
15230;SDS011;32569;51.762;8.564;2023-06-24T14:51:38;5.93;;;5.43;;
15230;SDS011;32569;51.762;8.564;2023-06-24T14:54:05;6.17;;;5.57;;